sensor_id;sensor_type;location;lat;lon;timestamp;P1;durP1;ratioP1;P2;durP2;ratioP2
68216;SDS011;55037;52.354;4.992;2022-12-18T00:01:23;162.52;;;53.63;;
68216;SDS011;55037;52.354;4.992;2022-12-18T00:03:58;122.22;;;42.90;;
68216;SDS011;55037;52.354;4.992;2022-12-18T00:06:28;153.15;;;50.10;;
68216;SDS011;55037;52.354;4.992;2022-12-18T00:08:56;148.45;;;50.85;;
68216;SDS011;55037;52.354;4.992;2022-12-18T00:11:26;125.25;;;46.85;;
68216;SDS011;55037;52.354;4.992;2022-12-18T00:13:57;137.98;;;49.97;;
68216;SDS011;55037;52.354;4.992;2022-12-18T00:16:26;124.73;;;47.57;;
68216;SDS011;55037;52.354;4.992;2022-12-18T00:18:55;127.15;;;46.72;;
68216;SDS011;55037;52.354;4.992;2022-12-18T00:21:23;121.35;;;46.97;;
68216;SDS011;55037;52.354;4.992;2022-12-18T00:23:51;117.88;;;45.85;;
68216;SDS011;55037;52.354;4.992;2022-12-18T00:26:22;138.38;;;51.90;;
68216;SDS011;55037;52.354;4.992;2022-12-18T00:28:57;117.40;;;44.13;;
68216;SDS011;55037;52.354;4.992;2022-12-18T00:31:26;144.93;;;51.03;;
68216;SDS011;55037;52.354;4.992;2022-12-18T00:33:53;153.93;;;53.13;;
68216;SDS011;55037;52.354;4.992;2022-12-18T00:36:23;147.45;;;52.63;;
68216;SDS011;55037;52.354;4.992;2022-12-18T00:38:53;126.72;;;46.63;;
68216;SDS011;55037;52.354;4.992;2022-12-18T00:41:21;138.73;;;49.20;;
68216;SDS011;55037;52.354;4.992;2022-12-18T00:44:09;139.23;;;50.30;;
68216;SDS011;55037;52.354;4.992;2022-12-18T00:46:38;155.15;;;54.03;;
68216;SDS011;55037;52.354;4.992;2022-12-18T00:49:06;143.35;;;51.60;;
68216;SDS011;55037;52.354;4.992;2022-12-18T00:51:34;141.73;;;50.73;;
68216;SDS011;55037;52.354;4.992;2022-12-18T00:54:02;149.30;;;51.77;;
68216;SDS011;55037;52.354;4.992;2022-12-18T00:56:30;150.02;;;51.75;;
68216;SDS011;55037;52.354;4.992;2022-12-18T00:58:57;150.85;;;52.92;;
68216;SDS011;55037;52.354;4.992;2022-12-18T01:01:25;140.43;;;48.17;;
68216;SDS011;55037;52.354;4.992;2022-12-18T01:03:52;145.88;;;47.05;;
68216;SDS011;55037;52.354;4.992;2022-12-18T01:06:22;105.43;;;39.33;;
68216;SDS011;55037;52.354;4.992;2022-12-18T01:08:50;145.60;;;45.60;;
68216;SDS011;55037;52.354;4.992;2022-12-18T01:11:18;136.30;;;47.80;;
68216;SDS011;55037;52.354;4.992;2022-12-18T01:13:47;148.48;;;46.75;;
68216;SDS011;55037;52.354;4.992;2022-12-18T01:16:15;155.88;;;47.70;;
68216;SDS011;55037;52.354;4.992;2022-12-18T01:18:43;168.02;;;49.88;;
68216;SDS011;55037;52.354;4.992;2022-12-18T01:21:12;178.57;;;53.78;;
68216;SDS011;55037;52.354;4.992;2022-12-18T01:23:44;170.18;;;49.63;;
68216;SDS011;55037;52.354;4.992;2022-12-18T01:26:14;205.07;;;51.93;;
68216;SDS011;55037;52.354;4.992;2022-12-18T01:28:43;231.30;;;51.78;;
68216;SDS011;55037;52.354;4.992;2022-12-18T01:31:11;237.00;;;52.37;;
68216;SDS011;55037;52.354;4.992;2022-12-18T01:33:47;237.32;;;51.08;;
68216;SDS011;55037;52.354;4.992;2022-12-18T01:36:23;195.70;;;54.43;;
68216;SDS011;55037;52.354;4.992;2022-12-18T01:38:52;184.18;;;48.20;;
68216;SDS011;55037;52.354;4.992;2022-12-18T01:41:21;172.43;;;52.47;;
68216;SDS011;55037;52.354;4.992;2022-12-18T01:43:53;168.10;;;53.03;;
68216;SDS011;55037;52.354;4.992;2022-12-18T01:46:24;176.25;;;53.28;;
68216;SDS011;55037;52.354;4.992;2022-12-18T01:48:56;166.23;;;51.93;;
68216;SDS011;55037;52.354;4.992;2022-12-18T01:51:27;174.23;;;50.63;;
68216;SDS011;55037;52.354;4.992;2022-12-18T01:53:57;175.00;;;51.65;;
68216;SDS011;55037;52.354;4.992;2022-12-18T01:56:26;167.63;;;47.97;;
68216;SDS011;55037;52.354;4.992;2022-12-18T01:58:54;186.70;;;54.67;;
68216;SDS011;55037;52.354;4.992;2022-12-18T02:01:31;194.32;;;54.42;;
68216;SDS011;55037;52.354;4.992;2022-12-18T02:07:06;218.60;;;55.00;;
68216;SDS011;55037;52.354;4.992;2022-12-18T02:09:39;215.85;;;53.55;;
68216;SDS011;55037;52.354;4.992;2022-12-18T02:26:12;168.55;;;51.08;;
68216;SDS011;55037;52.354;4.992;2022-12-18T02:28:48;142.43;;;51.87;;
68216;SDS011;55037;52.354;4.992;2022-12-18T02:31:25;90.32;;;36.80;;
68216;SDS011;55037;52.354;4.992;2022-12-18T02:33:55;98.68;;;37.90;;
68216;SDS011;55037;52.354;4.992;2022-12-18T02:36:26;176.18;;;43.15;;
68216;SDS011;55037;52.354;4.992;2022-12-18T02:38:56;218.23;;;53.70;;
68216;SDS011;55037;52.354;4.992;2022-12-18T02:41:25;222.88;;;54.30;;
68216;SDS011;55037;52.354;4.992;2022-12-18T02:43:55;284.75;;;47.17;;
68216;SDS011;55037;52.354;4.992;2022-12-18T02:48:57;392.27;;;57.90;;
68216;SDS011;55037;52.354;4.992;2022-12-18T02:51:37;257.10;;;52.03;;
68216;SDS011;55037;52.354;4.992;2022-12-18T02:54:26;295.38;;;45.92;;
68216;SDS011;55037;52.354;4.992;2022-12-18T02:57:25;206.73;;;36.95;;
68216;SDS011;55037;52.354;4.992;2022-12-18T03:05:33;225.57;;;50.67;;
68216;SDS011;55037;52.354;4.992;2022-12-18T03:08:07;221.07;;;53.15;;
68216;SDS011;55037;52.354;4.992;2022-12-18T03:10:51;144.23;;;38.33;;
68216;SDS011;55037;52.354;4.992;2022-12-18T03:13:28;275.77;;;49.08;;
68216;SDS011;55037;52.354;4.992;2022-12-18T03:15:59;290.58;;;50.00;;
68216;SDS011;55037;52.354;4.992;2022-12-18T03:18:30;270.10;;;55.03;;
68216;SDS011;55037;52.354;4.992;2022-12-18T03:21:04;212.52;;;51.22;;
68216;SDS011;55037;52.354;4.992;2022-12-18T03:23:39;204.45;;;52.38;;
68216;SDS011;55037;52.354;4.992;2022-12-18T03:26:11;197.05;;;52.97;;
68216;SDS011;55037;52.354;4.992;2022-12-18T03:28:43;169.93;;;50.67;;
68216;SDS011;55037;52.354;4.992;2022-12-18T03:31:18;220.85;;;46.95;;
68216;SDS011;55037;52.354;4.992;2022-12-18T03:33:54;193.27;;;42.47;;
68216;SDS011;55037;52.354;4.992;2022-12-18T03:36:33;152.13;;;34.92;;
68216;SDS011;55037;52.354;4.992;2022-12-18T03:39:01;248.77;;;52.72;;
68216;SDS011;55037;52.354;4.992;2022-12-18T03:41:34;177.90;;;53.23;;
68216;SDS011;55037;52.354;4.992;2022-12-18T03:44:26;200.30;;;51.05;;
68216;SDS011;55037;52.354;4.992;2022-12-18T03:47:19;203.33;;;53.70;;
68216;SDS011;55037;52.354;4.992;2022-12-18T03:52:49;148.52;;;50.75;;
68216;SDS011;55037;52.354;4.992;2022-12-18T03:55:35;130.95;;;50.35;;
68216;SDS011;55037;52.354;4.992;2022-12-18T03:58:05;120.10;;;48.75;;
68216;SDS011;55037;52.354;4.992;2022-12-18T04:00:48;117.53;;;47.10;;
68216;SDS011;55037;52.354;4.992;2022-12-18T04:03:19;119.22;;;50.10;;
68216;SDS011;55037;52.354;4.992;2022-12-18T04:05:52;121.72;;;51.42;;
68216;SDS011;55037;52.354;4.992;2022-12-18T04:08:22;116.72;;;49.47;;
68216;SDS011;55037;52.354;4.992;2022-12-18T04:11:00;115.50;;;50.78;;
68216;SDS011;55037;52.354;4.992;2022-12-18T04:13:30;112.47;;;49.47;;
68216;SDS011;55037;52.354;4.992;2022-12-18T04:16:02;112.20;;;50.15;;
68216;SDS011;55037;52.354;4.992;2022-12-18T04:18:31;113.57;;;51.13;;
68216;SDS011;55037;52.354;4.992;2022-12-18T04:21:00;108.75;;;50.25;;
68216;SDS011;55037;52.354;4.992;2022-12-18T04:23:28;110.90;;;51.80;;
68216;SDS011;55037;52.354;4.992;2022-12-18T04:25:57;106.07;;;50.47;;
68216;SDS011;55037;52.354;4.992;2022-12-18T04:28:52;110.00;;;49.78;;
68216;SDS011;55037;52.354;4.992;2022-12-18T04:31:20;107.68;;;51.00;;
68216;SDS011;55037;52.354;4.992;2022-12-18T04:33:48;102.75;;;50.13;;
68216;SDS011;55037;52.354;4.992;2022-12-18T04:36:16;100.53;;;50.05;;
68216;SDS011;55037;52.354;4.992;2022-12-18T04:38:45;101.18;;;50.42;;
68216;SDS011;55037;52.354;4.992;2022-12-18T04:41:15;100.88;;;49.88;;
68216;SDS011;55037;52.354;4.992;2022-12-18T04:43:45;96.07;;;49.35;;
68216;SDS011;55037;52.354;4.992;2022-12-18T04:46:13;99.28;;;49.47;;
68216;SDS011;55037;52.354;4.992;2022-12-18T04:48:40;97.07;;;49.80;;
68216;SDS011;55037;52.354;4.992;2022-12-18T04:51:07;94.63;;;48.25;;
68216;SDS011;55037;52.354;4.992;2022-12-18T04:53:34;93.47;;;47.75;;
68216;SDS011;55037;52.354;4.992;2022-12-18T04:56:05;89.40;;;48.20;;
68216;SDS011;55037;52.354;4.992;2022-12-18T04:58:35;95.20;;;49.60;;
68216;SDS011;55037;52.354;4.992;2022-12-18T05:01:04;89.37;;;48.13;;
68216;SDS011;55037;52.354;4.992;2022-12-18T05:03:33;88.23;;;47.67;;
68216;SDS011;55037;52.354;4.992;2022-12-18T05:06:01;93.68;;;49.20;;
68216;SDS011;55037;52.354;4.992;2022-12-18T05:08:28;92.22;;;49.13;;
68216;SDS011;55037;52.354;4.992;2022-12-18T05:11:03;93.73;;;51.00;;
68216;SDS011;55037;52.354;4.992;2022-12-18T05:13:36;87.57;;;48.58;;
68216;SDS011;55037;52.354;4.992;2022-12-18T05:16:05;89.32;;;49.78;;
68216;SDS011;55037;52.354;4.992;2022-12-18T05:18:33;83.05;;;47.97;;
68216;SDS011;55037;52.354;4.992;2022-12-18T05:21:01;84.43;;;49.10;;
68216;SDS011;55037;52.354;4.992;2022-12-18T05:23:29;83.55;;;48.67;;
68216;SDS011;55037;52.354;4.992;2022-12-18T05:26:00;90.40;;;51.63;;
68216;SDS011;55037;52.354;4.992;2022-12-18T05:28:29;89.60;;;51.25;;
68216;SDS011;55037;52.354;4.992;2022-12-18T05:30:59;85.25;;;51.30;;
68216;SDS011;55037;52.354;4.992;2022-12-18T05:33:29;82.88;;;50.15;;
68216;SDS011;55037;52.354;4.992;2022-12-18T05:35:58;85.60;;;52.00;;
68216;SDS011;55037;52.354;4.992;2022-12-18T05:38:27;83.17;;;51.27;;
68216;SDS011;55037;52.354;4.992;2022-12-18T05:40:56;81.40;;;51.60;;
68216;SDS011;55037;52.354;4.992;2022-12-18T05:43:24;85.32;;;53.85;;
68216;SDS011;55037;52.354;4.992;2022-12-18T05:45:52;86.18;;;53.13;;
68216;SDS011;55037;52.354;4.992;2022-12-18T05:48:20;86.05;;;53.38;;
68216;SDS011;55037;52.354;4.992;2022-12-18T05:50:48;87.95;;;54.03;;
68216;SDS011;55037;52.354;4.992;2022-12-18T05:53:18;87.30;;;54.55;;
68216;SDS011;55037;52.354;4.992;2022-12-18T05:55:46;80.60;;;52.42;;
68216;SDS011;55037;52.354;4.992;2022-12-18T05:58:14;74.47;;;47.65;;
68216;SDS011;55037;52.354;4.992;2022-12-18T06:00:43;70.30;;;47.28;;
68216;SDS011;55037;52.354;4.992;2022-12-18T06:03:12;74.97;;;45.95;;
68216;SDS011;55037;52.354;4.992;2022-12-18T06:05:41;74.43;;;49.08;;
68216;SDS011;55037;52.354;4.992;2022-12-18T06:08:10;75.45;;;48.13;;
68216;SDS011;55037;52.354;4.992;2022-12-18T06:10:39;77.60;;;50.92;;
68216;SDS011;55037;52.354;4.992;2022-12-18T06:13:07;80.10;;;51.80;;
68216;SDS011;55037;52.354;4.992;2022-12-18T06:15:38;75.33;;;48.10;;
68216;SDS011;55037;52.354;4.992;2022-12-18T06:18:05;78.50;;;50.80;;
68216;SDS011;55037;52.354;4.992;2022-12-18T06:20:32;69.13;;;45.20;;
68216;SDS011;55037;52.354;4.992;2022-12-18T06:23:00;66.70;;;45.72;;
68216;SDS011;55037;52.354;4.992;2022-12-18T06:25:27;68.45;;;46.22;;
68216;SDS011;55037;52.354;4.992;2022-12-18T06:27:55;47.70;;;30.92;;
68216;SDS011;55037;52.354;4.992;2022-12-18T06:30:22;64.18;;;42.05;;
68216;SDS011;55037;52.354;4.992;2022-12-18T06:32:49;64.78;;;43.20;;
68216;SDS011;55037;52.354;4.992;2022-12-18T06:35:22;59.60;;;39.40;;
68216;SDS011;55037;52.354;4.992;2022-12-18T06:37:50;63.40;;;42.75;;
68216;SDS011;55037;52.354;4.992;2022-12-18T06:40:18;34.78;;;26.67;;
68216;SDS011;55037;52.354;4.992;2022-12-18T06:42:45;57.42;;;40.03;;
68216;SDS011;55037;52.354;4.992;2022-12-18T06:45:12;56.90;;;40.78;;
68216;SDS011;55037;52.354;4.992;2022-12-18T06:47:40;60.33;;;42.38;;
68216;SDS011;55037;52.354;4.992;2022-12-18T06:50:07;50.33;;;33.73;;
68216;SDS011;55037;52.354;4.992;2022-12-18T06:52:35;59.07;;;41.93;;
68216;SDS011;55037;52.354;4.992;2022-12-18T06:55:03;52.47;;;35.40;;
68216;SDS011;55037;52.354;4.992;2022-12-18T06:57:31;57.70;;;41.55;;
68216;SDS011;55037;52.354;4.992;2022-12-18T06:59:58;49.90;;;34.20;;
68216;SDS011;55037;52.354;4.992;2022-12-18T07:02:25;55.50;;;38.43;;
68216;SDS011;55037;52.354;4.992;2022-12-18T07:04:53;59.00;;;42.17;;
68216;SDS011;55037;52.354;4.992;2022-12-18T07:07:20;53.47;;;37.65;;
68216;SDS011;55037;52.354;4.992;2022-12-18T07:09:49;56.25;;;40.63;;
68216;SDS011;55037;52.354;4.992;2022-12-18T07:12:16;33.77;;;24.40;;
68216;SDS011;55037;52.354;4.992;2022-12-18T07:14:44;49.60;;;37.10;;
68216;SDS011;55037;52.354;4.992;2022-12-18T07:17:11;40.05;;;28.75;;
68216;SDS011;55037;52.354;4.992;2022-12-18T07:19:38;48.28;;;36.72;;
68216;SDS011;55037;52.354;4.992;2022-12-18T07:22:05;47.17;;;35.50;;
68216;SDS011;55037;52.354;4.992;2022-12-18T07:24:33;47.17;;;35.65;;
68216;SDS011;55037;52.354;4.992;2022-12-18T07:27:01;45.03;;;34.05;;
68216;SDS011;55037;52.354;4.992;2022-12-18T07:29:29;30.73;;;23.45;;
68216;SDS011;55037;52.354;4.992;2022-12-18T07:31:57;47.28;;;35.90;;
68216;SDS011;55037;52.354;4.992;2022-12-18T07:34:24;33.55;;;26.67;;
68216;SDS011;55037;52.354;4.992;2022-12-18T07:36:52;46.37;;;35.97;;
68216;SDS011;55037;52.354;4.992;2022-12-18T07:39:19;36.90;;;26.77;;
68216;SDS011;55037;52.354;4.992;2022-12-18T07:41:46;44.53;;;35.00;;
68216;SDS011;55037;52.354;4.992;2022-12-18T07:44:34;43.67;;;32.53;;
68216;SDS011;55037;52.354;4.992;2022-12-18T07:47:01;46.70;;;37.65;;
68216;SDS011;55037;52.354;4.992;2022-12-18T07:49:34;43.80;;;34.27;;
68216;SDS011;55037;52.354;4.992;2022-12-18T07:52:01;37.55;;;27.67;;
68216;SDS011;55037;52.354;4.992;2022-12-18T07:54:29;45.08;;;35.53;;
68216;SDS011;55037;52.354;4.992;2022-12-18T07:56:56;36.63;;;28.20;;
68216;SDS011;55037;52.354;4.992;2022-12-18T07:59:24;43.33;;;35.75;;
68216;SDS011;55037;52.354;4.992;2022-12-18T08:01:52;37.43;;;29.30;;
68216;SDS011;55037;52.354;4.992;2022-12-18T08:04:19;41.78;;;32.67;;
68216;SDS011;55037;52.354;4.992;2022-12-18T08:06:46;43.30;;;33.55;;
68216;SDS011;55037;52.354;4.992;2022-12-18T08:09:14;46.53;;;36.73;;
68216;SDS011;55037;52.354;4.992;2022-12-18T08:11:41;40.97;;;33.97;;
68216;SDS011;55037;52.354;4.992;2022-12-18T08:14:09;36.25;;;27.35;;
68216;SDS011;55037;52.354;4.992;2022-12-18T08:16:36;33.92;;;28.00;;
68216;SDS011;55037;52.354;4.992;2022-12-18T08:19:04;38.08;;;32.22;;
68216;SDS011;55037;52.354;4.992;2022-12-18T08:21:31;34.55;;;28.17;;
68216;SDS011;55037;52.354;4.992;2022-12-18T08:23:59;26.17;;;23.25;;
68216;SDS011;55037;52.354;4.992;2022-12-18T08:26:28;40.83;;;34.07;;
68216;SDS011;55037;52.354;4.992;2022-12-18T08:28:57;33.28;;;26.65;;
68216;SDS011;55037;52.354;4.992;2022-12-18T08:31:26;37.00;;;32.47;;
68216;SDS011;55037;52.354;4.992;2022-12-18T08:33:55;36.08;;;29.48;;
68216;SDS011;55037;52.354;4.992;2022-12-18T08:36:23;39.53;;;33.10;;
68216;SDS011;55037;52.354;4.992;2022-12-18T08:38:51;35.40;;;28.08;;
68216;SDS011;55037;52.354;4.992;2022-12-18T08:41:19;30.15;;;24.05;;
68216;SDS011;55037;52.354;4.992;2022-12-18T08:43:47;39.28;;;32.92;;
68216;SDS011;55037;52.354;4.992;2022-12-18T08:46:34;34.13;;;29.10;;
68216;SDS011;55037;52.354;4.992;2022-12-18T08:49:04;32.53;;;27.47;;
68216;SDS011;55037;52.354;4.992;2022-12-18T08:51:32;37.67;;;33.37;;
68216;SDS011;55037;52.354;4.992;2022-12-18T08:54:00;34.78;;;30.77;;
68216;SDS011;55037;52.354;4.992;2022-12-18T08:56:29;38.45;;;32.25;;
68216;SDS011;55037;52.354;4.992;2022-12-18T08:58:56;33.10;;;29.13;;
68216;SDS011;55037;52.354;4.992;2022-12-18T09:01:24;36.72;;;31.25;;
68216;SDS011;55037;52.354;4.992;2022-12-18T09:03:52;34.03;;;30.38;;
68216;SDS011;55037;52.354;4.992;2022-12-18T09:06:20;34.72;;;30.98;;
68216;SDS011;55037;52.354;4.992;2022-12-18T09:08:48;34.90;;;31.13;;
68216;SDS011;55037;52.354;4.992;2022-12-18T09:11:23;32.17;;;28.77;;
68216;SDS011;55037;52.354;4.992;2022-12-18T09:13:52;35.58;;;31.05;;
68216;SDS011;55037;52.354;4.992;2022-12-18T09:16:20;34.78;;;31.00;;
68216;SDS011;55037;52.354;4.992;2022-12-18T09:18:57;29.52;;;26.33;;
68216;SDS011;55037;52.354;4.992;2022-12-18T09:21:31;34.67;;;31.00;;
68216;SDS011;55037;52.354;4.992;2022-12-18T09:24:03;32.30;;;28.83;;
68216;SDS011;55037;52.354;4.992;2022-12-18T09:26:34;34.78;;;30.98;;
68216;SDS011;55037;52.354;4.992;2022-12-18T09:29:02;28.53;;;24.93;;
68216;SDS011;55037;52.354;4.992;2022-12-18T09:31:30;36.13;;;31.92;;
68216;SDS011;55037;52.354;4.992;2022-12-18T09:33:57;32.42;;;28.42;;
68216;SDS011;55037;52.354;4.992;2022-12-18T09:36:24;34.43;;;30.70;;
68216;SDS011;55037;52.354;4.992;2022-12-18T09:38:52;26.33;;;21.60;;
68216;SDS011;55037;52.354;4.992;2022-12-18T09:41:39;35.33;;;31.17;;
68216;SDS011;55037;52.354;4.992;2022-12-18T09:46:47;35.05;;;30.70;;
68216;SDS011;55037;52.354;4.992;2022-12-18T09:49:25;34.05;;;30.00;;
68216;SDS011;55037;52.354;4.992;2022-12-18T09:51:57;31.97;;;28.57;;
68216;SDS011;55037;52.354;4.992;2022-12-18T09:54:33;24.57;;;21.50;;
68216;SDS011;55037;52.354;4.992;2022-12-18T09:57:04;33.40;;;29.77;;
68216;SDS011;55037;52.354;4.992;2022-12-18T09:59:35;33.83;;;30.07;;
68216;SDS011;55037;52.354;4.992;2022-12-18T10:02:15;31.37;;;26.67;;
68216;SDS011;55037;52.354;4.992;2022-12-18T10:05:11;34.80;;;31.10;;
68216;SDS011;55037;52.354;4.992;2022-12-18T10:07:47;34.75;;;30.38;;
68216;SDS011;55037;52.354;4.992;2022-12-18T10:15:46;25.40;;;22.70;;
68216;SDS011;55037;52.354;4.992;2022-12-18T10:21:09;31.25;;;27.23;;
68216;SDS011;55037;52.354;4.992;2022-12-18T10:23:46;31.80;;;28.43;;
68216;SDS011;55037;52.354;4.992;2022-12-18T10:26:18;30.50;;;27.17;;
68216;SDS011;55037;52.354;4.992;2022-12-18T10:28:47;29.47;;;26.37;;
68216;SDS011;55037;52.354;4.992;2022-12-18T10:31:16;26.38;;;23.58;;
68216;SDS011;55037;52.354;4.992;2022-12-18T10:33:50;31.73;;;27.92;;
68216;SDS011;55037;52.354;4.992;2022-12-18T10:36:22;28.88;;;25.42;;
68216;SDS011;55037;52.354;4.992;2022-12-18T10:38:51;23.17;;;20.77;;
68216;SDS011;55037;52.354;4.992;2022-12-18T10:43:47;27.40;;;24.40;;
68216;SDS011;55037;52.354;4.992;2022-12-18T10:46:19;30.45;;;27.25;;
68216;SDS011;55037;52.354;4.992;2022-12-18T10:53:58;35.15;;;31.52;;
68216;SDS011;55037;52.354;4.992;2022-12-18T10:56:27;30.45;;;27.25;;
68216;SDS011;55037;52.354;4.992;2022-12-18T10:58:57;30.67;;;27.57;;
68216;SDS011;55037;52.354;4.992;2022-12-18T11:04:25;30.30;;;27.17;;
68216;SDS011;55037;52.354;4.992;2022-12-18T11:07:04;26.38;;;23.58;;
68216;SDS011;55037;52.354;4.992;2022-12-18T11:09:37;30.88;;;27.67;;
68216;SDS011;55037;52.354;4.992;2022-12-18T11:14:43;29.50;;;26.52;;
68216;SDS011;55037;52.354;4.992;2022-12-18T11:17:31;40.35;;;36.03;;
68216;SDS011;55037;52.354;4.992;2022-12-18T11:20:02;28.73;;;25.75;;
68216;SDS011;55037;52.354;4.992;2022-12-18T11:22:34;33.45;;;30.08;;
68216;SDS011;55037;52.354;4.992;2022-12-18T11:25:07;28.70;;;25.80;;
68216;SDS011;55037;52.354;4.992;2022-12-18T11:30:32;30.75;;;27.45;;
68216;SDS011;55037;52.354;4.992;2022-12-18T11:33:06;25.60;;;23.00;;
68216;SDS011;55037;52.354;4.992;2022-12-18T11:35:59;33.50;;;30.17;;
68216;SDS011;55037;52.354;4.992;2022-12-18T11:38:37;32.27;;;28.97;;
68216;SDS011;55037;52.354;4.992;2022-12-18T11:41:27;31.88;;;28.70;;
68216;SDS011;55037;52.354;4.992;2022-12-18T11:44:54;29.35;;;26.35;;
68216;SDS011;55037;52.354;4.992;2022-12-18T11:47:37;27.92;;;25.15;;
68216;SDS011;55037;52.354;4.992;2022-12-18T11:50:13;36.42;;;32.92;;
68216;SDS011;55037;52.354;4.992;2022-12-18T11:52:45;33.00;;;29.63;;
68216;SDS011;55037;52.354;4.992;2022-12-18T11:55:27;32.83;;;29.52;;
68216;SDS011;55037;52.354;4.992;2022-12-18T12:07:17;35.28;;;31.67;;
68216;SDS011;55037;52.354;4.992;2022-12-18T12:34:58;37.95;;;34.35;;
68216;SDS011;55037;52.354;4.992;2022-12-18T12:40:31;37.25;;;33.65;;
68216;SDS011;55037;52.354;4.992;2022-12-18T12:46:03;37.78;;;34.08;;
68216;SDS011;55037;52.354;4.992;2022-12-18T12:54:02;31.73;;;28.88;;
68216;SDS011;55037;52.354;4.992;2022-12-18T12:56:37;36.40;;;33.00;;
68216;SDS011;55037;52.354;4.992;2022-12-18T13:08:08;32.45;;;29.38;;
68216;SDS011;55037;52.354;4.992;2022-12-18T13:10:38;37.88;;;34.15;;
68216;SDS011;55037;52.354;4.992;2022-12-18T13:13:11;30.60;;;27.70;;
68216;SDS011;55037;52.354;4.992;2022-12-18T13:16:05;38.53;;;34.93;;
68216;SDS011;55037;52.354;4.992;2022-12-18T13:18:34;34.70;;;31.40;;
68216;SDS011;55037;52.354;4.992;2022-12-18T13:21:04;38.72;;;35.03;;
68216;SDS011;55037;52.354;4.992;2022-12-18T13:23:45;36.83;;;33.33;;
68216;SDS011;55037;52.354;4.992;2022-12-18T13:36:55;36.80;;;33.40;;
68216;SDS011;55037;52.354;4.992;2022-12-18T13:39:55;32.70;;;29.50;;
68216;SDS011;55037;52.354;4.992;2022-12-18T13:45:36;37.05;;;33.60;;
68216;SDS011;55037;52.354;4.992;2022-12-18T13:48:14;37.35;;;33.70;;
68216;SDS011;55037;52.354;4.992;2022-12-18T13:50:48;38.00;;;34.45;;
68216;SDS011;55037;52.354;4.992;2022-12-18T13:53:27;39.15;;;35.25;;
68216;SDS011;55037;52.354;4.992;2022-12-18T13:56:16;32.22;;;29.23;;
68216;SDS011;55037;52.354;4.992;2022-12-18T13:58:44;37.03;;;33.33;;
68216;SDS011;55037;52.354;4.992;2022-12-18T14:01:23;38.53;;;34.75;;
68216;SDS011;55037;52.354;4.992;2022-12-18T14:03:51;35.63;;;32.23;;
68216;SDS011;55037;52.354;4.992;2022-12-18T14:06:36;37.78;;;34.17;;
68216;SDS011;55037;52.354;4.992;2022-12-18T14:09:04;31.92;;;28.95;;
68216;SDS011;55037;52.354;4.992;2022-12-18T14:11:35;36.22;;;32.42;;
68216;SDS011;55037;52.354;4.992;2022-12-18T14:14:06;39.28;;;35.55;;
68216;SDS011;55037;52.354;4.992;2022-12-18T14:16:34;38.38;;;34.65;;
68216;SDS011;55037;52.354;4.992;2022-12-18T14:19:02;33.90;;;30.70;;
68216;SDS011;55037;52.354;4.992;2022-12-18T14:21:45;38.60;;;35.00;;
68216;SDS011;55037;52.354;4.992;2022-12-18T14:24:15;36.45;;;33.00;;
68216;SDS011;55037;52.354;4.992;2022-12-18T14:26:46;34.28;;;30.85;;
68216;SDS011;55037;52.354;4.992;2022-12-18T14:34:48;33.70;;;30.45;;
68216;SDS011;55037;52.354;4.992;2022-12-18T14:37:24;36.87;;;33.30;;
68216;SDS011;55037;52.354;4.992;2022-12-18T14:39:56;32.90;;;29.70;;
68216;SDS011;55037;52.354;4.992;2022-12-18T14:42:30;39.53;;;35.55;;
68216;SDS011;55037;52.354;4.992;2022-12-18T14:48:08;31.77;;;28.33;;
68216;SDS011;55037;52.354;4.992;2022-12-18T14:50:57;35.95;;;32.53;;
68216;SDS011;55037;52.354;4.992;2022-12-18T14:53:46;39.08;;;35.28;;
68216;SDS011;55037;52.354;4.992;2022-12-18T14:56:22;35.88;;;32.45;;
68216;SDS011;55037;52.354;4.992;2022-12-18T14:58:53;39.70;;;35.93;;
68216;SDS011;55037;52.354;4.992;2022-12-18T15:04:04;31.73;;;28.73;;
68216;SDS011;55037;52.354;4.992;2022-12-18T15:06:50;36.70;;;33.20;;
68216;SDS011;55037;52.354;4.992;2022-12-18T15:20:41;33.23;;;29.83;;
68216;SDS011;55037;52.354;4.992;2022-12-18T15:23:16;37.80;;;34.13;;
68216;SDS011;55037;52.354;4.992;2022-12-18T15:25:47;30.40;;;27.50;;
68216;SDS011;55037;52.354;4.992;2022-12-18T15:28:26;41.65;;;37.55;;
68216;SDS011;55037;52.354;4.992;2022-12-18T15:31:01;33.55;;;30.35;;
68216;SDS011;55037;52.354;4.992;2022-12-18T15:36:20;39.83;;;35.97;;
68216;SDS011;55037;52.354;4.992;2022-12-18T15:38:53;39.73;;;35.87;;
68216;SDS011;55037;52.354;4.992;2022-12-18T15:41:31;33.50;;;30.45;;
68216;SDS011;55037;52.354;4.992;2022-12-18T15:44:14;41.45;;;37.45;;
68216;SDS011;55037;52.354;4.992;2022-12-18T15:46:49;33.15;;;29.90;;
68216;SDS011;55037;52.354;4.992;2022-12-18T15:49:16;37.67;;;34.08;;
68216;SDS011;55037;52.354;4.992;2022-12-18T15:51:44;42.22;;;38.03;;
68216;SDS011;55037;52.354;4.992;2022-12-18T15:54:14;41.10;;;37.10;;
68216;SDS011;55037;52.354;4.992;2022-12-18T15:57:04;32.58;;;29.48;;
68216;SDS011;55037;52.354;4.992;2022-12-18T15:59:55;33.67;;;30.42;;
68216;SDS011;55037;52.354;4.992;2022-12-18T16:02:25;40.67;;;36.83;;
68216;SDS011;55037;52.354;4.992;2022-12-18T16:04:52;33.85;;;30.63;;
68216;SDS011;55037;52.354;4.992;2022-12-18T16:07:20;36.85;;;33.25;;
68216;SDS011;55037;52.354;4.992;2022-12-18T16:09:51;34.13;;;30.98;;
68216;SDS011;55037;52.354;4.992;2022-12-18T16:12:20;36.80;;;33.13;;
68216;SDS011;55037;52.354;4.992;2022-12-18T16:14:49;40.33;;;36.42;;
68216;SDS011;55037;52.354;4.992;2022-12-18T16:17:17;32.80;;;29.70;;
68216;SDS011;55037;52.354;4.992;2022-12-18T16:19:44;39.90;;;36.00;;
68216;SDS011;55037;52.354;4.992;2022-12-18T16:22:21;37.22;;;33.55;;
68216;SDS011;55037;52.354;4.992;2022-12-18T16:24:50;37.73;;;34.03;;
68216;SDS011;55037;52.354;4.992;2022-12-18T16:27:19;41.00;;;37.00;;
68216;SDS011;55037;52.354;4.992;2022-12-18T16:29:47;44.58;;;40.17;;
68216;SDS011;55037;52.354;4.992;2022-12-18T16:32:15;41.67;;;37.35;;
68216;SDS011;55037;52.354;4.992;2022-12-18T16:34:46;43.25;;;38.95;;
68216;SDS011;55037;52.354;4.992;2022-12-18T16:37:15;44.00;;;39.60;;
68216;SDS011;55037;52.354;4.992;2022-12-18T16:39:42;34.35;;;30.88;;
68216;SDS011;55037;52.354;4.992;2022-12-18T16:42:12;39.88;;;35.95;;
68216;SDS011;55037;52.354;4.992;2022-12-18T16:44:43;34.85;;;31.45;;
68216;SDS011;55037;52.354;4.992;2022-12-18T16:47:10;37.65;;;34.03;;
68216;SDS011;55037;52.354;4.992;2022-12-18T16:49:41;41.28;;;37.35;;
68216;SDS011;55037;52.354;4.992;2022-12-18T16:52:12;33.78;;;30.58;;
68216;SDS011;55037;52.354;4.992;2022-12-18T16:54:39;34.25;;;31.00;;
68216;SDS011;55037;52.354;4.992;2022-12-18T16:57:08;33.80;;;30.70;;
68216;SDS011;55037;52.354;4.992;2022-12-18T16:59:38;36.42;;;32.85;;
68216;SDS011;55037;52.354;4.992;2022-12-18T17:02:06;35.30;;;31.88;;
68216;SDS011;55037;52.354;4.992;2022-12-18T17:04:51;45.22;;;40.65;;
68216;SDS011;55037;52.354;4.992;2022-12-18T17:07:20;36.15;;;32.70;;
68216;SDS011;55037;52.354;4.992;2022-12-18T17:09:48;36.63;;;33.35;;
68216;SDS011;55037;52.354;4.992;2022-12-18T17:12:16;44.00;;;39.60;;
68216;SDS011;55037;52.354;4.992;2022-12-18T17:14:44;34.75;;;31.58;;